Time;durP1;ratioP1;P1;durP2;ratioP2;P2;SDS_P1;SDS_P2;PMS_P1;PMS_P2;Temp;Humidity;BMP_temperature;BMP_pressure;BME280_temperature;BME280_humidity;BME280_pressure;Samples;Min_cycle;Max_cycle;Signal;HPM_P1;HPM_P2
2022/12/06 00:00:44;;;;;;;5.90;1.92;;;23.10;88.90;;;;;;1843463;77;21089;-69
2022/12/06 00:03:15;;;;;;;5.45;1.72;;;23.10;88.80;;;;;;1832408;77;21662;-68
2022/12/06 00:05:45;;;;;;;4.58;1.60;;;23.10;88.80;;;;;;1830244;78;21103;-68
2022/12/06 00:08:16;;;;;;;3.37;1.52;;;23.10;88.60;;;;;;1835872;77;21119;-68
2022/12/06 00:10:47;;;;;;;4.37;1.67;;;23.10;88.20;;;;;;1827429;77;21173;-68
2022/12/06 00:13:18;;;;;;;3.30;1.85;;;23.10;87.70;;;;;;1826960;77;21158;-68
2022/12/06 00:15:50;;;;;;;3.70;1.42;;;23.10;87.90;;;;;;1838415;77;21677;-67
2022/12/06 00:18:21;;;;;;;2.85;1.47;;;23.10;88.00;;;;;;1833663;77;21071;-68
2022/12/06 00:20:52;;;;;;;2.42;1.70;;;23.10;88.30;;;;;;1842853;77;21095;-68
2022/12/06 00:23:23;;;;;;;3.83;1.98;;;23.10;88.40;;;;;;1829003;77;21240;-68
2022/12/06 00:25:55;;;;;;;3.42;1.75;;;23.20;88.40;;;;;;1793555;79;21174;-68
2022/12/06 00:28:26;;;;;;;3.65;1.30;;;23.20;87.90;;;;;;1806103;78;21630;-68
2022/12/06 00:31:01;;;;;;;4.30;1.90;;;23.20;87.50;;;;;;1786488;80;21162;-67
2022/12/06 00:33:33;;;;;;;5.08;2.10;;;23.20;87.40;;;;;;1791711;79;21602;-67
2022/12/06 00:36:09;;;;;;;6.92;2.22;;;23.20;87.50;;;;;;1776236;80;21570;-68
2022/12/06 00:38:40;;;;;;;3.62;2.22;;;23.20;87.40;;;;;;1773655;80;21190;-67
2022/12/06 00:41:16;;;;;;;18.62;11.70;;;23.30;87.50;;;;;;1802387;78;21223;-67
2022/12/06 00:43:51;;;;;;;23.42;16.30;;;23.30;87.60;;;;;;1801500;78;21254;-69
2022/12/06 00:46:24;;;;;;;15.70;9.65;;;23.30;87.70;;;;;;1796608;79;21166;-69
2022/12/06 00:48:57;;;;;;;12.03;7.15;;;23.30;87.60;;;;;;1778950;78;21635;-67
2022/12/06 00:51:29;;;;;;;14.83;9.38;;;23.30;87.50;;;;;;1819162;78;21623;-67
2022/12/06 00:54:01;;;;;;;25.08;16.65;;;23.40;87.60;;;;;;1864054;76;21139;-68
2022/12/06 00:56:34;;;;;;;8.68;4.03;;;23.40;87.30;;;;;;1813212;78;21854;-68
2022/12/06 00:59:05;;;;;;;11.88;7.90;;;23.40;86.90;;;;;;1800291;78;21622;-69
2022/12/06 01:01:36;;;;;;;17.17;11.33;;;23.40;86.90;;;;;;1816871;78;21598;-68
2022/12/06 01:04:08;;;;;;;13.85;9.15;;;23.40;87.20;;;;;;1810195;78;21099;-68
2022/12/06 01:06:39;;;;;;;10.85;6.35;;;23.40;87.10;;;;;;1818816;78;21171;-69
2022/12/06 01:09:12;;;;;;;4.62;2.62;;;23.40;87.40;;;;;;1814478;78;21099;-68
2022/12/06 01:11:42;;;;;;;5.75;3.30;;;23.50;87.30;;;;;;1815359;78;21156;-68
2022/12/06 01:14:19;;;;;;;6.95;4.22;;;23.50;87.40;;;;;;1821829;78;21099;-68
2022/12/06 01:16:50;;;;;;;5.40;3.10;;;23.50;87.40;;;;;;1801099;78;21170;-69
2022/12/06 01:19:21;;;;;;;5.87;2.52;;;23.60;87.30;;;;;;1769514;80;21238;-68
2022/12/06 01:21:56;;;;;;;3.85;2.60;;;23.60;87.20;;;;;;1778217;80;21401;-68
2022/12/06 01:24:27;;;;;;;7.22;3.35;;;23.60;88.30;;;;;;1787332;80;21080;-69
2022/12/06 01:26:59;;;;;;;5.72;2.47;;;23.60;87.50;;;;;;1782978;80;21210;-68
2022/12/06 01:29:30;;;;;;;7.25;3.00;;;23.60;87.30;;;;;;1839010;77;21236;-69
2022/12/06 01:32:02;;;;;;;6.00;3.00;;;23.70;87.40;;;;;;1845448;77;21677;-69
2022/12/06 01:34:33;;;;;;;4.65;2.22;;;23.70;87.50;;;;;;1833003;77;21580;-69
2022/12/06 01:37:06;;;;;;;4.92;3.40;;;23.80;87.00;;;;;;1826869;77;21183;-69
2022/12/06 01:39:37;;;;;;;5.80;3.00;;;23.80;86.90;;;;;;1835500;77;21241;-70
2022/12/06 01:42:10;;;;;;;3.20;1.87;;;23.90;86.70;;;;;;1833933;77;21644;-69
2022/12/06 01:45:01;;;;;;;7.70;2.25;;;23.90;86.40;;;;;;1831786;77;21064;-69
2022/12/06 01:47:32;;;;;;;4.33;2.40;;;24.00;86.60;;;;;;1851831;76;21822;-69
2022/12/06 01:50:11;;;;;;;7.10;2.17;;;24.00;86.50;;;;;;1834041;76;21151;-69
2022/12/06 01:53:04;;;;;;;4.05;2.15;;;24.00;86.10;;;;;;1834986;77;21175;-71
2022/12/06 01:55:37;;;;;;;5.65;2.65;;;24.00;86.00;;;;;;1839621;77;22680;-71
2022/12/06 01:58:11;;;;;;;3.67;2.30;;;24.10;85.90;;;;;;1835595;77;21131;-69
2022/12/06 02:00:43;;;;;;;4.60;2.50;;;24.10;85.90;;;;;;1848961;76;21182;-70
2022/12/06 02:03:16;;;;;;;5.72;2.50;;;24.10;85.80;;;;;;1831991;77;21071;-69
2022/12/06 02:05:48;;;;;;;3.65;2.12;;;24.20;85.70;;;;;;1843092;77;21255;-68
2022/12/06 02:08:20;;;;;;;7.05;2.42;;;24.20;85.50;;;;;;1813653;78;21154;-69
2022/12/06 02:10:51;;;;;;;5.33;2.30;;;24.20;85.20;;;;;;1782718;79;21198;-69
2022/12/06 02:13:26;;;;;;;6.10;2.72;;;24.30;85.30;;;;;;1796918;79;21737;-69
2022/12/06 02:16:11;;;;;;;4.08;2.33;;;24.30;85.50;;;;;;1816946;77;21175;-69
2022/12/06 02:18:58;;;;;;;4.62;2.33;;;24.40;85.40;;;;;;1847169;77;21635;-69
2022/12/06 02:21:46;;;;;;;9.03;2.87;;;24.50;84.60;;;;;;1842511;77;21207;-69
2022/12/06 02:24:36;;;;;;;11.97;3.25;;;24.50;83.90;;;;;;1836644;76;21155;-69
2022/12/06 02:27:33;;;;;;;5.75;2.42;;;24.60;83.50;;;;;;1836520;77;21142;-69
2022/12/06 02:30:09;;;;;;;8.13;3.20;;;24.60;83.60;;;;;;1836572;77;21154;-68
2022/12/06 02:32:52;;;;;;;7.03;2.47;;;24.70;83.60;;;;;;1842747;77;21142;-68
2022/12/06 02:35:35;;;;;;;5.67;2.62;;;24.70;83.20;;;;;;1832756;76;21630;-68
2022/12/06 02:38:17;;;;;;;7.33;2.75;;;24.80;83.40;;;;;;1833788;77;21182;-67
2022/12/06 02:40:56;;;;;;;3.75;2.00;;;24.90;83.40;;;;;;1838813;76;21177;-68
2022/12/06 02:43:29;;;;;;;5.40;2.37;;;24.90;83.10;;;;;;1840933;76;21168;-68
2022/12/06 02:46:03;;;;;;;5.85;2.58;;;25.00;83.00;;;;;;1836737;76;21115;-68
2022/12/06 02:48:35;;;;;;;7.15;2.92;;;25.00;82.90;;;;;;1832730;77;21160;-68
2022/12/06 02:51:08;;;;;;;4.70;2.62;;;25.00;83.10;;;;;;1843087;76;21150;-68
2022/12/06 02:53:41;;;;;;;5.78;2.20;;;25.10;82.70;;;;;;1838561;77;21726;-69
2022/12/06 02:56:14;;;;;;;3.33;2.25;;;25.10;82.80;;;;;;1843468;77;21288;-68
2022/12/06 02:58:46;;;;;;;6.28;2.10;;;25.10;82.20;;;;;;1845966;77;21068;-68
2022/12/06 03:01:24;;;;;;;4.58;2.52;;;25.10;82.50;;;;;;1846073;76;21155;-69
2022/12/06 03:04:33;;;;;;;5.15;2.33;;;25.20;82.50;;;;;;1841797;77;21155;-67
2022/12/06 03:07:20;;;;;;;;;;;25.20;82.30;;;;;;1844253;77;21131;-71
2022/12/06 03:10:09;;;;;;;4.03;2.02;;;25.30;82.60;;;;;;1841677;76;20614;-69
2022/12/06 03:12:54;;;;;;;6.85;2.40;;;25.40;82.40;;;;;;1838749;77;21170;-69
2022/12/06 03:15:37;;;;;;;5.12;2.58;;;25.40;82.10;;;;;;1835456;76;21174;-68
2022/12/06 03:18:19;;;;;;;4.42;2.25;;;25.50;82.10;;;;;;1840077;76;21175;-68
2022/12/06 03:20:53;;;;;;;4.15;2.25;;;25.60;81.60;;;;;;1828517;77;21218;-68
2022/12/06 03:23:30;;;;;;;4.35;2.65;;;25.60;81.10;;;;;;1831458;76;21151;-68
2022/12/06 03:26:10;;;;;;;5.58;2.52;;;25.70;81.20;;;;;;1842139;77;21143;-68
2022/12/06 03:28:45;;;;;;;4.35;2.30;;;25.70;81.20;;;;;;1847202;76;21166;-67
2022/12/06 03:31:16;;;;;;;6.03;2.30;;;25.70;81.30;;;;;;1846544;77;21236;-68
2022/12/06 03:33:50;;;;;;;6.00;3.00;;;25.80;81.00;;;;;;1845954;77;21228;-68
2022/12/06 03:36:23;;;;;;;6.08;2.70;;;25.80;80.80;;;;;;1844932;77;21177;-69
2022/12/06 03:38:57;;;;;;;6.15;2.80;;;25.90;80.70;;;;;;1843123;77;21174;-67
2022/12/06 03:41:31;;;;;;;5.65;2.60;;;26.00;80.80;;;;;;1844415;77;21135;-68
2022/12/06 03:44:02;;;;;;;4.55;2.67;;;26.00;80.40;;;;;;1830905;76;21198;-68
2022/12/06 03:46:42;;;;;;;4.28;2.20;;;26.10;80.40;;;;;;1836249;76;21314;-68
2022/12/06 03:49:22;;;;;;;4.80;2.60;;;26.20;80.20;;;;;;1832841;77;21095;-67
2022/12/06 03:51:55;;;;;;;8.50;2.72;;;26.40;80.30;;;;;;1844454;77;21644;-70
2022/12/06 03:54:27;;;;;;;3.75;2.80;;;26.50;79.60;;;;;;1833310;76;21131;-69
2022/12/06 03:56:58;;;;;;;7.30;3.33;;;26.50;79.00;;;;;;1805892;77;21131;-69
2022/12/06 03:59:29;;;;;;;5.70;2.80;;;26.60;78.40;;;;;;1843183;76;21248;-68
2022/12/06 04:01:59;;;;;;;6.45;2.60;;;26.70;78.70;;;;;;1841091;77;21142;-68
2022/12/06 04:04:31;;;;;;;4.50;2.70;;;26.70;79.10;;;;;;1837380;77;21638;-69
2022/12/06 04:07:03;;;;;;;4.33;2.65;;;26.90;79.00;;;;;;1839771;77;21182;-69
2022/12/06 04:09:51;;;;;;;9.85;2.95;;;27.00;78.10;;;;;;1836873;77;21213;-69
2022/12/06 04:15:13;;;;;;;22.75;4.17;;;27.20;77.80;;;;;;1846453;77;21301;-68
2022/12/06 04:23:25;;;;;;;5.47;2.80;;;27.40;77.40;;;;;;1809486;76;21232;-70
2022/12/06 04:26:00;;;;;;;6.53;3.22;;;27.50;77.70;;;;;;1807059;77;21690;-69
2022/12/06 04:39:53;;;;;;;6.42;2.85;;;27.90;76.30;;;;;;1834966;77;21653;-69
2022/12/06 04:45:17;;;;;;;6.15;3.10;;;28.00;75.60;;;;;;1837092;77;21238;-69
2022/12/06 04:47:51;;;;;;;6.40;2.75;;;28.10;75.40;;;;;;1836990;77;21573;-68
2022/12/06 04:50:22;;;;;;;5.33;2.72;;;28.10;75.30;;;;;;1850296;77;21159;-69
2022/12/06 04:52:53;;;;;;;5.50;2.90;;;28.20;75.40;;;;;;1839880;77;21139;-71
2022/12/06 04:55:24;;;;;;;3.60;2.50;;;28.30;73.70;;;;;;1842782;77;21138;-69
2022/12/06 04:57:55;;;;;;;5.00;2.70;;;28.40;74.60;;;;;;1836481;77;21631;-69
2022/12/06 05:00:26;;;;;;;8.83;2.70;;;28.40;75.10;;;;;;1837070;77;21147;-69
2022/12/06 05:02:57;;;;;;;3.70;2.22;;;28.50;73.70;;;;;;1850191;76;21193;-68
2022/12/06 05:05:28;;;;;;;8.98;3.02;;;28.60;73.50;;;;;;1842693;77;21159;-70
2022/12/06 05:07:58;;;;;;;5.35;2.85;;;28.60;74.10;;;;;;1836869;76;21130;-68
2022/12/06 05:10:29;;;;;;;6.10;2.52;;;28.60;73.70;;;;;;1840159;77;21147;-68
2022/12/06 05:13:02;;;;;;;4.92;2.60;;;28.80;73.40;;;;;;1835246;76;21123;-67
2022/12/06 05:15:33;;;;;;;6.08;2.40;;;28.90;73.10;;;;;;1839451;77;21203;-68
2022/12/06 05:18:06;;;;;;;4.47;2.30;;;29.00;72.50;;;;;;1846105;77;21178;-70
2022/12/06 05:20:37;;;;;;;3.95;2.50;;;29.10;72.20;;;;;;1842195;77;21189;-68
2022/12/06 05:23:09;;;;;;;7.92;2.83;;;29.20;71.90;;;;;;1761202;80;21144;-68
2022/12/06 05:25:41;;;;;;;9.28;2.85;;;29.10;71.50;;;;;;1790401;80;21101;-68
2022/12/06 05:28:15;;;;;;;7.80;2.75;;;29.20;71.70;;;;;;1789620;80;21555;-69
2022/12/06 05:30:46;;;;;;;4.08;2.77;;;29.30;71.50;;;;;;1783292;80;21159;-70
2022/12/06 05:33:17;;;;;;;4.28;2.60;;;29.30;71.20;;;;;;1818195;77;21179;-69
2022/12/06 05:35:50;;;;;;;4.50;2.50;;;29.40;69.50;;;;;;1811840;78;21122;-70
2022/12/06 05:38:23;;;;;;;5.78;2.67;;;29.40;70.00;;;;;;1819599;77;21175;-68
2022/12/06 05:40:56;;;;;;;4.08;2.58;;;29.50;70.10;;;;;;1800320;79;21182;-71
2022/12/06 05:43:28;;;;;;;5.90;3.00;;;29.60;70.00;;;;;;1778267;79;21232;-70
2022/12/06 05:46:00;;;;;;;6.58;2.98;;;29.60;69.50;;;;;;1827688;77;21224;-69
2022/12/06 05:48:36;;;;;;;5.85;2.42;;;29.60;68.60;;;;;;1840060;77;21150;-70
2022/12/06 05:51:06;;;;;;;5.22;3.08;;;29.70;68.70;;;;;;1815786;78;21143;-70
2022/12/06 05:53:44;;;;;;;4.95;2.65;;;29.60;68.60;;;;;;1818603;78;21186;-70
2022/12/06 05:56:14;;;;;;;7.10;3.20;;;29.70;69.10;;;;;;1824659;78;21139;-70
2022/12/06 05:58:45;;;;;;;5.72;2.85;;;29.70;68.60;;;;;;1820964;77;21197;-69
2022/12/06 06:01:16;;;;;;;3.52;2.10;;;29.70;68.70;;;;;;1834721;77;21170;-69
2022/12/06 06:03:46;;;;;;;3.98;2.80;;;29.80;68.50;;;;;;1840630;76;21130;-69
2022/12/06 06:06:17;;;;;;;4.60;2.60;;;29.70;68.10;;;;;;1842575;77;21797;-70
2022/12/06 06:08:51;;;;;;;4.47;2.62;;;29.70;68.00;;;;;;1848599;76;21553;-70
2022/12/06 06:11:22;;;;;;;6.12;3.00;;;29.70;68.00;;;;;;1848166;77;21159;-69
2022/12/06 06:13:55;;;;;;;6.05;2.90;;;29.80;67.90;;;;;;1845235;76;21116;-70
2022/12/06 06:16:26;;;;;;;5.03;2.42;;;29.70;68.10;;;;;;1857546;77;21224;-68
2022/12/06 06:19:00;;;;;;;5.33;2.30;;;29.70;68.40;;;;;;1840607;76;21163;-69
2022/12/06 06:21:35;;;;;;;7.58;2.40;;;29.70;68.10;;;;;;1849241;77;21752;-69
2022/12/06 06:24:08;;;;;;;3.90;2.50;;;29.70;67.80;;;;;;1850227;77;21190;-70
2022/12/06 06:26:38;;;;;;;4.47;2.50;;;29.70;68.20;;;;;;1855557;77;21599;-69
2022/12/06 06:29:10;;;;;;;6.72;2.65;;;29.70;67.90;;;;;;1839133;77;21237;-69
2022/12/06 06:31:41;;;;;;;4.33;2.30;;;29.80;68.00;;;;;;1827064;78;21194;-69
2022/12/06 06:34:12;;;;;;;5.15;1.60;;;29.80;68.60;;;;;;1796134;78;21135;-69
2022/12/06 06:36:43;;;;;;;3.55;1.45;;;29.80;67.00;;;;;;1782858;79;21098;-71
2022/12/06 06:39:15;;;;;;;3.12;1.57;;;29.80;65.90;;;;;;1786579;78;21149;-68
2022/12/06 06:41:47;;;;;;;6.05;1.95;;;29.80;66.40;;;;;;1799749;79;21178;-70
2022/12/06 06:44:18;;;;;;;5.10;1.82;;;29.90;66.60;;;;;;1790347;78;21622;-69
2022/12/06 06:46:48;;;;;;;2.62;1.45;;;29.80;66.00;;;;;;1787801;78;21213;-69
2022/12/06 06:49:21;;;;;;;4.08;1.92;;;29.80;66.90;;;;;;1796256;79;21689;-71
2022/12/06 06:51:52;;;;;;;3.58;2.37;;;29.80;66.90;;;;;;1790470;78;21148;-70
2022/12/06 06:54:24;;;;;;;4.37;2.08;;;29.70;67.50;;;;;;1785074;78;21251;-69
2022/12/06 06:56:58;;;;;;;5.28;2.17;;;29.80;67.20;;;;;;1786859;78;21217;-69
2022/12/06 06:59:29;;;;;;;4.67;1.90;;;29.80;66.70;;;;;;1828479;78;21241;-70
2022/12/06 07:02:00;;;;;;;3.45;1.92;;;29.90;66.60;;;;;;1823104;78;21093;-70
2022/12/06 07:04:44;;;;;;;6.53;2.10;;;29.90;66.60;;;;;;1783710;80;21184;-70
2022/12/06 07:07:15;;;;;;;3.98;1.40;;;30.00;66.70;;;;;;1797683;78;21206;-70
2022/12/06 07:09:48;;;;;;;3.90;1.80;;;30.00;65.80;;;;;;1811524;78;21144;-70
2022/12/06 07:12:19;;;;;;;2.80;1.62;;;30.00;66.00;;;;;;1815675;78;21217;-70
2022/12/06 07:14:51;;;;;;;3.95;1.42;;;30.00;65.70;;;;;;1817814;78;21161;-71
2022/12/06 07:17:26;;;;;;;3.33;1.90;;;30.00;66.00;;;;;;1819117;77;21193;-70
2022/12/06 07:19:57;;;;;;;5.50;1.70;;;30.00;65.30;;;;;;1826584;78;21195;-70
2022/12/06 07:22:29;;;;;;;4.83;1.90;;;30.10;65.90;;;;;;1813439;77;21644;-70
2022/12/06 07:25:04;;;;;;;3.72;1.70;;;30.10;65.90;;;;;;1824873;77;21106;-71
2022/12/06 07:27:39;;;;;;;4.35;1.65;;;30.10;65.60;;;;;;1798410;78;21905;-68
2022/12/06 07:30:16;;;;;;;3.98;1.82;;;30.30;65.80;;;;;;1802334;79;21150;-70
2022/12/06 07:32:49;;;;;;;4.05;1.85;;;30.30;65.40;;;;;;1793737;78;21293;-70
2022/12/06 07:35:24;;;;;;;;;;;30.30;65.30;;;;;;1852309;76;21182;-71
2022/12/06 07:38:01;;;;;;;4.45;1.60;;;30.30;66.20;;;;;;1850228;76;20197;-71
2022/12/06 07:40:32;;;;;;;5.28;1.62;;;30.30;65.70;;;;;;1848154;77;21214;-69
2022/12/06 07:45:53;;;;;;;5.50;1.87;;;30.20;64.90;;;;;;1822276;78;21236;-70
2022/12/06 07:48:27;;;;;;;3.35;1.90;;;30.10;65.90;;;;;;1846512;76;21079;-71
2022/12/06 07:51:03;;;;;;;2.72;1.60;;;30.20;65.60;;;;;;1846754;76;21286;-71
2022/12/06 07:53:35;;;;;;;2.98;1.52;;;30.10;65.80;;;;;;1825654;78;21171;-71
2022/12/06 07:56:10;;;;;;;7.45;2.12;;;30.00;65.40;;;;;;1851519;76;21201;-70
2022/12/06 07:58:42;;;;;;;8.13;1.72;;;29.90;65.70;;;;;;1854304;76;21056;-69
2022/12/06 08:01:16;;;;;;;3.25;1.40;;;29.80;66.20;;;;;;1855241;76;21147;-71
2022/12/06 08:03:47;;;;;;;6.30;2.20;;;29.70;67.00;;;;;;1849472;76;21111;-70
2022/12/06 08:06:24;;;;;;;5.85;1.90;;;29.70;67.20;;;;;;1852080;76;21301;-69
2022/12/06 08:09:17;;;;;;;3.42;1.95;;;29.60;67.50;;;;;;1846550;77;21582;-69
2022/12/06 08:11:48;;;;;;;5.85;2.00;;;29.60;67.30;;;;;;1876529;75;21138;-70
2022/12/06 08:14:19;;;;;;;4.15;2.05;;;29.60;67.80;;;;;;1830005;77;21186;-69
2022/12/06 08:16:50;;;;;;;3.87;1.80;;;29.50;67.10;;;;;;1854158;76;21088;-69
2022/12/06 08:19:22;;;;;;;3.42;2.02;;;29.50;67.40;;;;;;1870627;75;21602;-69
2022/12/06 08:21:53;;;;;;;5.17;2.67;;;29.50;67.90;;;;;;1877910;75;21177;-70
2022/12/06 08:24:31;;;;;;;3.62;1.90;;;29.50;67.20;;;;;;1878801;74;21194;-70
2022/12/06 08:27:02;;;;;;;6.35;2.02;;;29.50;67.60;;;;;;1881472;75;21787;-70
2022/12/06 08:29:33;;;;;;;5.85;2.55;;;29.50;67.90;;;;;;1876822;75;21127;-69
2022/12/06 08:32:04;;;;;;;6.03;2.40;;;29.60;68.10;;;;;;1872306;76;21216;-69
2022/12/06 08:34:36;;;;;;;4.40;2.20;;;29.60;67.60;;;;;;1873287;75;21126;-69
2022/12/06 08:37:07;;;;;;;4.87;1.90;;;29.70;67.50;;;;;;1875901;75;21183;-70
2022/12/06 08:39:37;;;;;;;4.08;2.15;;;29.70;67.00;;;;;;1877441;75;21173;-69
2022/12/06 08:42:09;;;;;;;3.08;1.90;;;29.70;66.90;;;;;;1871917;74;21194;-70
2022/12/06 08:44:39;;;;;;;3.98;2.00;;;29.80;66.80;;;;;;1879089;74;21075;-69
2022/12/06 08:47:11;;;;;;;3.92;1.95;;;29.80;66.80;;;;;;1877582;76;21091;-70
2022/12/06 08:49:42;;;;;;;4.00;2.05;;;29.80;66.80;;;;;;1880246;76;21134;-69
2022/12/06 08:52:13;;;;;;;3.30;2.33;;;29.90;66.90;;;;;;1883433;76;21127;-69
2022/12/06 08:54:43;;;;;;;5.85;2.65;;;29.80;67.10;;;;;;1870819;75;21123;-70
2022/12/06 08:57:15;;;;;;;4.47;2.77;;;29.90;66.80;;;;;;1880043;76;21142;-71
2022/12/06 08:59:48;;;;;;;5.35;2.00;;;29.90;67.10;;;;;;1855819;76;21183;-68
2022/12/06 09:02:19;;;;;;;4.78;1.92;;;29.90;66.90;;;;;;1880413;76;21181;-69
2022/12/06 09:04:51;;;;;;;5.08;1.92;;;29.80;67.40;;;;;;1872758;75;21197;-70
2022/12/06 09:07:22;;;;;;;6.15;1.67;;;29.80;66.90;;;;;;1878457;75;21681;-69
2022/12/06 09:09:56;;;;;;;3.30;1.70;;;29.80;66.80;;;;;;1871490;76;21095;-69
2022/12/06 09:12:34;;;;;;;4.60;1.90;;;29.80;66.90;;;;;;1871474;74;21574;-70
2022/12/06 09:15:06;;;;;;;3.95;1.92;;;29.70;67.00;;;;;;1867267;75;21174;-69
2022/12/06 09:17:37;;;;;;;3.77;1.90;;;29.80;67.20;;;;;;1880979;76;21134;-70
2022/12/06 09:20:09;;;;;;;5.60;2.02;;;29.70;67.20;;;;;;1864823;75;21157;-68
2022/12/06 09:22:41;;;;;;;3.70;1.70;;;29.70;67.40;;;;;;1875887;75;21186;-71
2022/12/06 09:25:11;;;;;;;7.12;1.95;;;29.70;67.00;;;;;;1870122;75;21640;-70
2022/12/06 09:27:42;;;;;;;3.20;2.20;;;29.70;67.20;;;;;;1876230;75;21192;-69
2022/12/06 09:30:14;;;;;;;5.25;2.42;;;29.70;67.10;;;;;;1881977;75;21107;-70
2022/12/06 09:33:05;;;;;;;6.30;2.33;;;29.70;67.20;;;;;;1879308;75;21260;-69
2022/12/06 09:35:36;;;;;;;3.22;2.17;;;29.60;67.20;;;;;;1899921;74;21259;-69
2022/12/06 09:38:07;;;;;;;5.17;2.30;;;29.60;67.20;;;;;;1906590;73;21116;-70
2022/12/06 09:40:58;;;;;;;4.60;2.37;;;29.50;67.30;;;;;;1894639;74;21721;-70
2022/12/06 09:43:48;;;;;;;6.08;1.70;;;29.50;67.60;;;;;;1905290;73;21091;-69
2022/12/06 09:46:27;;;;;;;7.67;2.33;;;29.40;67.30;;;;;;1892933;74;21134;-69
2022/12/06 09:49:06;;;;;;;5.83;2.50;;;29.40;67.80;;;;;;1897557;74;21111;-69
2022/12/06 09:51:39;;;;;;;6.87;2.65;;;29.40;67.70;;;;;;1896012;74;21115;-70
2022/12/06 09:54:15;;;;;;;4.45;1.85;;;29.30;67.90;;;;;;1911185;74;21208;-70
2022/12/06 09:56:51;;;;;;;3.02;1.57;;;29.30;67.80;;;;;;1907395;73;21115;-69
2022/12/06 09:59:27;;;;;;;4.47;1.80;;;29.20;67.80;;;;;;1902375;74;21114;-70
2022/12/06 10:02:22;;;;;;;4.20;2.27;;;29.20;68.20;;;;;;1901037;74;21150;-70
2022/12/06 10:05:19;;;;;;;7.80;2.15;;;29.20;68.40;;;;;;1897820;74;21571;-69
2022/12/06 10:08:01;;;;;;;3.90;1.98;;;29.10;68.80;;;;;;1839416;77;21166;-68
2022/12/06 10:10:44;;;;;;;5.85;2.05;;;29.10;68.80;;;;;;1864216;76;21780;-68
2022/12/06 10:13:21;;;;;;;3.75;2.50;;;29.00;68.60;;;;;;1838970;76;21102;-68
2022/12/06 10:16:16;;;;;;;4.37;2.30;;;29.00;69.00;;;;;;1846905;76;21139;-68
2022/12/06 10:18:52;;;;;;;3.58;2.22;;;29.00;69.00;;;;;;1845866;76;21097;-70
2022/12/06 10:21:26;;;;;;;6.42;2.27;;;28.90;69.10;;;;;;1880668;74;21137;-68
2022/12/06 10:24:08;;;;;;;6.05;2.22;;;28.90;69.50;;;;;;1887061;74;21111;-69
2022/12/06 10:26:54;;;;;;;7.25;2.95;;;28.90;69.60;;;;;;1904912;74;21154;-67
2022/12/06 10:29:45;;;;;;;9.15;3.80;;;28.90;69.70;;;;;;1909989;74;21139;-69
2022/12/06 10:32:33;;;;;;;8.78;3.50;;;28.80;69.80;;;;;;1914938;74;21158;-69
2022/12/06 10:35:19;;;;;;;5.87;2.62;;;28.80;70.00;;;;;;1912881;73;21150;-69
2022/12/06 10:38:08;;;;;;;9.03;3.58;;;28.80;69.90;;;;;;1893100;75;21253;-68
2022/12/06 10:40:45;;;;;;;4.70;2.20;;;28.80;70.20;;;;;;1902979;74;21104;-68
2022/12/06 10:43:18;;;;;;;7.72;3.00;;;28.70;70.20;;;;;;1916270;74;21622;-68
2022/12/06 10:48:59;;;;;;;5.97;2.92;;;28.70;70.10;;;;;;1911755;73;21071;-69
2022/12/06 10:51:41;;;;;;;5.45;2.70;;;28.60;70.50;;;;;;1906519;74;21096;-69
2022/12/06 10:54:24;;;;;;;7.22;3.50;;;28.60;70.50;;;;;;1896601;74;21233;-69
2022/12/06 10:56:57;;;;;;;5.90;2.52;;;28.60;70.80;;;;;;1895173;73;21185;-68
2022/12/06 10:59:41;;;;;;;7.00;3.02;;;28.50;71.00;;;;;;1906302;75;21116;-68
2022/12/06 11:02:21;;;;;;;7.45;3.47;;;28.50;71.00;;;;;;1899947;75;21245;-68
2022/12/06 11:04:55;;;;;;;4.90;3.35;;;28.50;71.30;;;;;;1896688;74;21108;-69
2022/12/06 11:07:28;;;;;;;7.10;3.55;;;28.50;71.30;;;;;;1890753;73;21061;-69
2022/12/06 11:10:00;;;;;;;7.10;4.00;;;28.50;71.60;;;;;;1907290;75;21155;-70
2022/12/06 11:12:37;;;;;;;7.33;3.90;;;28.40;71.60;;;;;;1900916;74;21131;-69
2022/12/06 11:15:25;;;;;;;8.93;4.90;;;28.40;72.00;;;;;;1895627;74;21123;-69
2022/12/06 11:18:06;;;;;;;10.10;6.20;;;28.40;72.10;;;;;;1897290;73;21161;-69
2022/12/06 11:20:46;;;;;;;11.93;7.08;;;28.40;72.20;;;;;;1895058;74;21606;-68
2022/12/06 11:23:29;;;;;;;12.18;7.40;;;28.40;72.10;;;;;;1907306;74;21108;-67
2022/12/06 11:26:31;;;;;;;11.25;7.28;;;28.40;72.30;;;;;;1895565;74;21116;-67
2022/12/06 11:29:09;;;;;;;15.05;8.35;;;28.40;72.30;;;;;;1851175;74;21184;-69
2022/12/06 11:31:51;;;;;;;14.68;9.28;;;28.30;72.40;;;;;;1852312;76;21141;-68
2022/12/06 11:34:33;;;;;;;13.70;10.20;;;28.30;72.50;;;;;;1877667;74;21572;-69
2022/12/06 11:37:06;;;;;;;14.58;10.68;;;28.30;72.70;;;;;;1891859;74;21591;-68
2022/12/06 11:39:42;;;;;;;14.80;8.93;;;28.30;72.90;;;;;;1897888;74;21159;-68
2022/12/06 11:42:15;;;;;;;17.02;9.30;;;28.30;72.90;;;;;;1904191;75;21080;-69
2022/12/06 11:44:52;;;;;;;16.07;9.45;;;28.30;73.00;;;;;;1886679;74;21056;-68
2022/12/06 11:47:23;;;;;;;14.35;8.40;;;28.20;73.10;;;;;;1900016;74;21146;-68
2022/12/06 11:49:56;;;;;;;14.78;7.60;;;28.20;73.20;;;;;;1906662;74;21722;-69
2022/12/06 11:52:43;;;;;;;14.20;7.80;;;28.20;73.30;;;;;;1880954;75;21184;-69
2022/12/06 11:55:22;;;;;;;14.80;7.42;;;28.20;73.40;;;;;;1879159;75;21136;-68
2022/12/06 11:58:05;;;;;;;13.30;7.35;;;28.20;73.40;;;;;;1884341;75;21072;-68
2022/12/06 12:00:39;;;;;;;;;;;28.20;73.70;;;;;;1858271;77;21135;-68
2022/12/06 12:03:14;;;;;;;13.80;8.65;;;28.20;73.60;;;;;;1838991;77;20262;-68
2022/12/06 12:05:45;;;;;;;14.10;7.00;;;28.10;73.60;;;;;;1857013;77;21128;-68
2022/12/06 12:08:20;;;;;;;14.63;7.80;;;28.10;73.60;;;;;;1843842;77;21145;-68
2022/12/06 12:11:03;;;;;;;13.45;8.33;;;28.10;73.70;;;;;;1881039;75;21196;-67
2022/12/06 12:13:47;;;;;;;10.20;7.05;;;28.10;73.80;;;;;;1888682;75;21131;-68
2022/12/06 12:16:21;;;;;;;14.15;7.80;;;28.10;73.90;;;;;;1892668;75;21453;-66
2022/12/06 12:19:00;;;;;;;13.58;7.60;;;28.10;74.10;;;;;;1888790;75;21158;-67
2022/12/06 12:21:42;;;;;;;19.25;9.33;;;28.10;74.20;;;;;;1910939;75;21084;-67
2022/12/06 12:24:40;;;;;;;16.97;10.15;;;28.00;74.20;;;;;;1890493;75;21207;-67
2022/12/06 12:27:38;;;;;;;12.85;7.28;;;28.00;74.70;;;;;;1898869;75;21625;-68
2022/12/06 12:30:27;;;;;;;15.95;7.87;;;28.00;75.20;;;;;;1893029;75;21582;-67
2022/12/06 12:33:10;;;;;;;10.95;7.60;;;28.00;75.50;;;;;;1888083;75;21599;-67
2022/12/06 12:35:46;;;;;;;10.00;6.83;;;28.00;75.80;;;;;;1901216;75;21146;-67
2022/12/06 12:38:25;;;;;;;13.38;6.65;;;27.90;75.90;;;;;;1896232;75;21551;-68
2022/12/06 12:41:00;;;;;;;13.18;6.72;;;27.90;75.90;;;;;;1903883;75;21454;-68
2022/12/06 12:44:16;;;;;;;16.97;7.37;;;27.90;76.10;;;;;;1917512;74;21091;-68
2022/12/06 12:46:57;;;;;;;11.25;6.60;;;27.90;76.20;;;;;;1883789;76;21169;-66
2022/12/06 12:49:34;;;;;;;10.25;7.03;;;27.80;76.50;;;;;;1858046;76;21059;-68
2022/12/06 12:52:16;;;;;;;13.90;6.97;;;27.80;76.60;;;;;;1840561;77;21557;-67
2022/12/06 12:54:59;;;;;;;12.58;6.78;;;27.80;76.90;;;;;;1832883;76;21080;-68
2022/12/06 12:57:35;;;;;;;16.95;7.45;;;27.80;77.10;;;;;;1828391;78;21534;-68
2022/12/06 13:00:07;;;;;;;13.70;7.47;;;27.70;77.30;;;;;;1873677;76;21137;-66
2022/12/06 13:02:43;;;;;;;14.13;7.55;;;27.70;77.50;;;;;;1857420;76;21155;-67
2022/12/06 13:05:19;;;;;;;14.58;7.62;;;27.70;78.70;;;;;;1850480;76;21180;-66
2022/12/06 13:07:55;;;;;;;18.15;7.95;;;27.70;78.10;;;;;;1866717;75;21733;-68
2022/12/06 13:10:39;;;;;;;13.78;8.18;;;27.70;78.10;;;;;;1859433;76;21114;-69
2022/12/06 13:13:18;;;;;;;15.55;9.28;;;27.70;78.10;;;;;;1859293;76;21226;-67
2022/12/06 13:15:51;;;;;;;18.45;9.60;;;27.60;78.10;;;;;;1855306;76;21578;-68
2022/12/06 13:18:36;;;;;;;18.48;9.60;;;27.60;78.10;;;;;;1878124;75;21088;-70
2022/12/06 13:21:24;;;;;;;21.27;10.13;;;27.60;78.30;;;;;;1861918;76;21109;-68
2022/12/06 13:23:57;;;;;;;15.83;10.18;;;27.50;78.10;;;;;;1854107;76;21132;-68
2022/12/06 13:26:45;;;;;;;21.02;11.00;;;27.50;78.20;;;;;;1855417;76;21134;-67
2022/12/06 13:29:29;;;;;;;18.73;10.78;;;27.50;78.30;;;;;;1848748;76;21189;-68
2022/12/06 13:32:05;;;;;;;17.40;10.82;;;27.40;78.30;;;;;;1853649;76;21641;-68
2022/12/06 13:34:51;;;;;;;20.43;10.82;;;27.40;78.40;;;;;;1864508;76;21709;-67
2022/12/06 13:37:36;;;;;;;18.23;10.23;;;27.40;78.60;;;;;;1803670;78;21166;-69
2022/12/06 13:40:05;;;;;;;19.02;10.58;;;27.30;78.90;;;;;;1839516;78;21519;-69
2022/12/06 13:42:39;;;;;;;18.37;10.53;;;27.30;79.00;;;;;;1857730;77;21109;-69
2022/12/06 13:45:25;;;;;;;19.87;10.50;;;27.40;79.40;;;;;;1855302;76;21750;-66
2022/12/06 13:48:00;;;;;;;19.92;11.20;;;27.30;79.70;;;;;;1848988;75;21218;-68
2022/12/06 13:50:40;;;;;;;18.65;11.30;;;27.30;80.00;;;;;;1825283;78;21624;-68
2022/12/06 13:53:14;;;;;;;18.30;11.00;;;27.30;80.30;;;;;;1881482;76;21559;-66
2022/12/06 13:55:54;;;;;;;21.30;10.63;;;27.20;80.50;;;;;;1855609;77;21796;-68
2022/12/06 13:58:29;;;;;;;18.17;10.53;;;27.20;80.60;;;;;;1901072;73;21251;-69